Overview Statistics Trail Chart Weather Telemetry Raw packets
 

This is the latest recevied weather packets stored in our database for station/object OK1FET-5. If no packets are shown the sender has not sent any weather packets the latest 10 day(s).

<< 19 20 21 22 23 24 25 >>
Time Temp. Humidity Pressure Rain* Wind** Luminosity Snow
1788278073 26.67° C 40% 1021 hPa - - - -
1788277477 27.22° C 40% 1021.1 hPa - - - -
1788276882 26.67° C 39% 1021.1 hPa - - - -
1788276285 26.67° C 41% 1021.2 hPa - - - -
1788275690 26.11° C 40% 1021.2 hPa - - - -
1788275094 26.11° C 41% 1021.2 hPa - - - -
1788274498 25° C 43% 1021.3 hPa - - - -
1788273902 24.44° C 42% 1021.3 hPa - - - -
1788273326 25.56° C 40% 1021.4 hPa - - - -
1788272711 27.78° C 36% 1021.4 hPa - - - -
1788272115 28.33° C 34% 1021.5 hPa - - - -
1788271519 28.89° C 36% 1021.4 hPa - - - -
1788270924 28.33° C 36% 1021.5 hPa - - - -
1788270328 28.33° C 36% 1021.5 hPa - - - -
1788269732 27.78° C 37% 1021.7 hPa - - - -
1788269136 27.78° C 38% 1021.8 hPa - - - -
1788268541 28.33° C 38% 1021.8 hPa - - - -
1788267945 27.22° C 38% 1021.8 hPa - - - -
1788267349 26.67° C 39% 1021.9 hPa - - - -
1788266753 27.78° C 37% 1022 hPa - - - -
1788266157 27.22° C 40% 1022.1 hPa - - - -
1788265561 25.56° C 43% 1022.2 hPa - - - -
1788264966 25° C 42% 1022.2 hPa - - - -
1788264370 25.56° C 43% 1022.2 hPa - - - -
1788263774 25° C 44% 1022.3 hPa - - - -

* Rain since midnight (hover to see other rain measurements)
** Current wind speed in m/s (hover to see current wind gust speed)